Time;durP1;ratioP1;P1;durP2;ratioP2;P2;SDS_P1;SDS_P2;PMS_P1;PMS_P2;Temp;Humidity;BMP_temperature;BMP_pressure;BME280_temperature;BME280_humidity;BME280_pressure;Samples;Min_cycle;Max_cycle;Signal;HPM_P1;HPM_P2
2022/03/25 00:00:10;;;;;;;24.75;17.55;;;;;;;1.07;90.17;93900.13;2092132;28;20024;-82
2022/03/25 00:01:11;;;;;;;26.60;16.98;;;;;;;1.00;90.59;93907.81;2085898;28;20063;-81
2022/03/25 00:02:12;;;;;;;29.00;17.98;;;;;;;1.00;90.17;93905.19;2096960;28;20055;-83
2022/03/25 00:03:13;;;;;;;26.48;18.58;;;;;;;0.99;90.72;93901.03;2092911;28;20449;-81
2022/03/25 00:04:14;;;;;;;29.98;18.17;;;;;;;0.98;90.98;93899.50;2097634;28;20103;-82
2022/03/25 00:05:17;;;;;;;27.08;17.50;;;;;;;1.06;90.94;93905.75;2104763;28;20027;-81
2022/03/25 00:06:18;;;;;;;28.42;17.95;;;;;;;1.04;90.56;93902.66;2092892;28;20032;-83
2022/03/25 00:07:19;;;;;;;29.30;17.33;;;;;;;0.95;91.13;93902.81;2088269;28;20021;-84
2022/03/25 00:08:20;;;;;;;27.38;18.17;;;;;;;0.92;91.77;93903.47;2090192;28;20490;-83
2022/03/25 00:09:21;;;;;;;27.02;18.73;;;;;;;1.07;91.65;93899.38;2097192;28;20021;-81
2022/03/25 00:10:22;;;;;;;30.13;19.60;;;;;;;1.04;91.31;93902.66;2097712;28;20044;-80
2022/03/25 00:11:22;;;;;;;27.60;18.05;;;;;;;0.92;92.32;93898.19;2097680;28;20072;-80
2022/03/25 00:12:23;;;;;;;26.92;17.95;;;;;;;0.85;91.89;93903.28;2097301;28;20024;-82
2022/03/25 00:13:25;;;;;;;26.70;17.48;;;;;;;0.83;92.25;93902.84;2093049;28;20049;-81
2022/03/25 00:14:26;;;;;;;30.70;19.13;;;;;;;0.96;91.63;93905.09;2091759;28;20119;-81
2022/03/25 00:15:27;;;;;;;27.20;17.73;;;;;;;0.96;91.82;93901.69;2084872;28;20025;-82
2022/03/25 00:16:28;;;;;;;28.40;18.15;;;;;;;0.85;92.14;93904.06;2086707;28;20139;-81
2022/03/25 00:17:29;;;;;;;27.88;18.05;;;;;;;0.78;93.13;93903.84;2089270;28;20029;-83
2022/03/25 00:18:30;;;;;;;26.42;17.20;;;;;;;0.80;92.95;93901.66;2097776;28;20036;-84
2022/03/25 00:19:31;;;;;;;29.85;18.05;;;;;;;0.79;93.25;93904.59;2101311;28;20032;-81
2022/03/25 00:20:32;;;;;;;28.63;18.13;;;;;;;0.74;94.50;93900.34;2100955;28;20039;-81
2022/03/25 00:21:33;;;;;;;29.27;18.10;;;;;;;0.78;93.93;93903.84;2088439;28;20730;-82
2022/03/25 00:22:34;;;;;;;28.85;18.23;;;;;;;0.84;93.52;93901.75;2088260;28;20029;-82
2022/03/25 00:23:35;;;;;;;30.67;19.27;;;;;;;0.75;94.01;93902.66;2093250;28;20028;-83
2022/03/25 00:24:36;;;;;;;27.95;18.35;;;;;;;0.78;94.35;93910.97;2090711;28;20063;-82
2022/03/25 00:25:38;;;;;;;30.45;18.15;;;;;;;0.79;93.08;93901.97;2085382;28;20057;-83
2022/03/25 00:26:39;;;;;;;26.80;17.75;;;;;;;0.74;93.51;93908.25;2091360;28;20811;-82
2022/03/25 00:27:40;;;;;;;30.80;18.65;;;;;;;0.78;93.35;93901.22;2085486;28;20064;-82
2022/03/25 00:28:41;;;;;;;27.50;18.40;;;;;;;0.69;93.85;93909.25;2084043;28;20036;-82
2022/03/25 00:29:42;;;;;;;27.88;17.42;;;;;;;0.69;94.19;93897.97;2091666;28;20156;-82
2022/03/25 00:30:43;;;;;;;30.17;18.40;;;;;;;0.66;94.53;93891.50;2087852;28;20060;-82
2022/03/25 00:31:44;;;;;;;30.55;18.63;;;;;;;0.67;94.37;93900.94;2084356;28;20026;-83
2022/03/25 00:32:46;;;;;;;30.90;18.38;;;;;;;0.66;94.28;93901.25;2095902;28;20021;-81
2022/03/25 00:33:49;;;;;;;26.15;18.45;;;;;;;0.61;95.46;93890.97;2083754;28;20536;-82
2022/03/25 00:34:50;;;;;;;27.60;17.80;;;;;;;0.59;95.52;93901.06;2083704;28;20036;-81
2022/03/25 00:35:51;;;;;;;29.73;18.75;;;;;;;0.48;96.47;93901.53;2091411;28;20048;-81
2022/03/25 00:36:52;;;;;;;32.42;18.00;;;;;;;0.54;96.59;93899.44;2099175;28;20359;-82
2022/03/25 00:37:53;;;;;;;28.88;17.75;;;;;;;0.58;95.84;93897.66;2104299;28;20035;-81
2022/03/25 00:38:54;;;;;;;30.20;19.40;;;;;;;0.54;95.75;93888.91;2091896;28;20074;-82
2022/03/25 00:39:55;;;;;;;30.02;17.92;;;;;;;0.60;95.34;93894.69;2097340;28;20127;-82
2022/03/25 00:40:56;;;;;;;24.70;17.42;;;;;;;0.61;95.59;93890.97;2088137;28;20110;-82
2022/03/25 00:41:57;;;;;;;32.58;18.15;;;;;;;0.64;95.91;93882.41;2085319;28;20651;-84
2022/03/25 00:42:58;;;;;;;27.05;17.33;;;;;;;0.47;97.04;93893.97;2091915;28;20028;-81
2022/03/25 00:43:59;;;;;;;30.40;18.63;;;;;;;0.53;97.17;93891.84;2092130;28;20028;-81
2022/03/25 00:45:02;;;;;;;29.67;19.42;;;;;;;0.47;97.50;93889.47;2091588;28;20048;-83
2022/03/25 00:46:05;;;;;;;27.70;17.73;;;;;;;0.36;97.75;93887.63;2084433;28;20112;-81
2022/03/25 00:47:06;;;;;;;28.88;18.10;;;;;;;0.38;97.61;93891.44;2083829;28;20500;-81
2022/03/25 00:48:07;;;;;;;30.92;17.75;;;;;;;0.37;97.42;93887.28;2086418;28;20033;-83
2022/03/25 00:49:08;;;;;;;28.10;17.95;;;;;;;0.42;97.57;93884.44;2094824;28;20051;-81
2022/03/25 00:50:11;;;;;;;28.63;18.45;;;;;;;0.43;97.49;93891.22;2090667;28;20020;-81
2022/03/25 00:51:12;;;;;;;27.25;17.77;;;;;;;0.42;97.34;93886.31;2084318;28;20041;-82
2022/03/25 00:52:13;;;;;;;28.48;17.25;;;;;;;0.39;97.69;93879.06;2087622;28;20033;-81
2022/03/25 00:53:14;;;;;;;28.38;17.92;;;;;;;0.41;97.75;93882.91;2084530;28;20029;-83
2022/03/25 00:54:15;;;;;;;30.98;18.00;;;;;;;0.37;98.16;93882.03;2092048;28;20031;-82
2022/03/25 00:55:16;;;;;;;28.25;17.40;;;;;;;0.42;97.44;93875.78;2090422;28;20103;-82
2022/03/25 00:56:17;;;;;;;29.40;18.52;;;;;;;0.33;97.62;93875.16;2092066;28;20458;-82
2022/03/25 00:57:18;;;;;;;28.02;17.83;;;;;;;0.29;98.77;93874.28;2091374;28;20031;-83
2022/03/25 00:58:21;;;;;;;29.40;18.25;;;;;;;0.31;98.74;93886.00;2083701;28;20029;-81
2022/03/25 00:59:22;;;;;;;25.02;16.70;;;;;;;0.32;98.65;93878.88;2097036;28;20021;-82
2022/03/25 01:00:23;;;;;;;32.38;18.45;;;;;;;0.31;98.51;93874.69;2103385;28;20115;-82
2022/03/25 01:01:25;;;;;;;26.98;18.58;;;;;;;0.32;98.22;93881.50;2096462;28;20101;-81
2022/03/25 01:02:26;;;;;;;31.20;18.20;;;;;;;0.38;98.14;93878.31;2096583;28;20028;-82
2022/03/25 01:03:27;;;;;;;27.70;17.73;;;;;;;0.43;97.50;93880.69;2093237;28;20033;-82
2022/03/25 01:04:28;;;;;;;31.20;18.30;;;;;;;0.34;98.38;93869.53;2096136;28;20079;-82
2022/03/25 01:05:30;;;;;;;29.67;18.52;;;;;;;0.18;99.95;93874.75;2095238;28;20017;-84
2022/03/25 01:06:31;;;;;;;26.92;17.85;;;;;;;0.22;99.69;93872.97;2096141;28;20032;-82
2022/03/25 01:07:34;;;;;;;30.23;17.13;;;;;;;0.27;99.24;93868.59;2101099;28;20035;-82
2022/03/25 01:08:38;;;;;;;28.17;18.15;;;;;;;0.16;99.38;93874.28;2094792;28;20051;-83
2022/03/25 01:09:39;;;;;;;27.05;17.65;;;;;;;0.17;99.87;93875.06;2085332;28;20079;-84
2022/03/25 01:10:40;;;;;;;28.42;17.65;;;;;;;0.13;100.00;93868.91;2085739;28;20060;-83
2022/03/25 01:11:41;;;;;;;27.27;17.17;;;;;;;0.15;100.00;93877.25;2083694;28;20143;-83
2022/03/25 01:12:42;;;;;;;28.73;17.52;;;;;;;0.20;100.00;93874.41;2087263;28;20059;-83
2022/03/25 01:13:44;;;;;;;28.00;17.48;;;;;;;0.22;99.53;93872.19;2091724;28;20444;-83
2022/03/25 01:14:45;;;;;;;26.90;16.92;;;;;;;0.22;99.62;93875.63;2093041;28;20028;-81
2022/03/25 01:15:46;;;;;;;29.95;18.25;;;;;;;0.37;99.26;93868.88;2095455;28;20488;-83
2022/03/25 01:16:48;;;;;;;28.17;17.88;;;;;;;0.20;98.11;93869.13;2104375;28;20031;-82
2022/03/25 01:17:49;;;;;;;25.55;16.88;;;;;;;0.15;99.29;93866.75;2104113;28;20058;-83
2022/03/25 01:18:50;;;;;;;32.33;18.05;;;;;;;0.04;99.18;93870.91;2092306;28;20112;-81
2022/03/25 01:19:51;;;;;;;27.65;17.90;;;;;;;0.04;100.00;93870.91;2082713;28;20033;-82
2022/03/25 01:20:51;;;;;;;29.75;17.67;;;;;;;0.07;100.00;93867.63;2085116;28;20026;-83
2022/03/25 01:21:52;;;;;;;29.20;17.98;;;;;;;-0.05;99.23;93871.78;2085472;28;20124;-82
2022/03/25 01:22:53;;;;;;;25.40;17.73;;;;;;;-0.11;100.00;93867.84;2089644;28;20464;-81
2022/03/25 01:23:56;;;;;;;30.02;18.10;;;;;;;-0.05;100.00;93871.03;2089003;28;20021;-84
2022/03/25 01:24:58;;;;;;;26.70;17.40;;;;;;;-0.07;100.00;93870.59;2089939;28;20021;-83
2022/03/25 01:25:59;;;;;;;30.80;17.15;;;;;;;-0.01;100.00;93872.66;2086014;28;20111;-83
2022/03/25 01:27:00;;;;;;;30.35;18.40;;;;;;;-0.01;100.00;93872.66;2088086;28;20485;-83
2022/03/25 01:28:01;;;;;;;28.95;18.55;;;;;;;-0.02;100.00;93865.88;2094293;28;20436;-84
2022/03/25 01:29:04;;;;;;;25.00;17.35;;;;;;;0.06;100.00;93868.72;2088670;28;20025;-82
2022/03/25 01:30:06;;;;;;;31.40;17.70;;;;;;;-0.04;100.00;93873.34;2083131;28;20421;-82
2022/03/25 01:31:09;;;;;;;27.85;17.05;;;;;;;0.02;100.00;93873.09;2089806;28;20025;-84
2022/03/25 01:32:10;;;;;;;26.48;16.50;;;;;;;0.07;100.00;93873.66;2097967;28;20013;-81
2022/03/25 01:33:11;;;;;;;27.50;17.48;;;;;;;0.18;99.62;93871.34;2083475;28;20075;-82
2022/03/25 01:34:12;;;;;;;30.27;17.60;;;;;;;0.09;99.84;93870.69;2094956;28;20052;-84
2022/03/25 01:35:14;;;;;;;27.25;16.48;;;;;;;0.01;100.00;93872.34;2092435;28;20025;-82
2022/03/25 01:36:15;;;;;;;30.48;17.45;;;;;;;-0.08;100.00;93869.84;2089135;28;20038;-85
2022/03/25 01:37:17;;;;;;;28.33;18.13;;;;;;;-0.11;100.00;93859.97;2088912;28;20116;-82
2022/03/25 01:38:18;;;;;;;28.52;18.02;;;;;;;-0.06;100.00;93872.13;2092751;28;20035;-81
2022/03/25 01:39:19;;;;;;;28.25;18.25;;;;;;;-0.05;100.00;93865.75;2089510;28;20063;-82
2022/03/25 01:40:21;;;;;;;27.48;17.42;;;;;;;-0.04;100.00;93868.09;2089239;28;20027;-81
2022/03/25 01:41:22;;;;;;;28.15;18.50;;;;;;;-0.17;100.00;93865.78;2090700;28;20029;-82
2022/03/25 01:42:31;;;;;;;29.15;18.10;;;;;;;-0.16;100.00;93872.56;2085135;28;20025;-83
2022/03/25 01:43:32;;;;;;;30.90;16.40;;;;;;;-0.16;100.00;93872.56;2091198;28;20059;-82
2022/03/25 01:44:32;;;;;;;29.13;17.20;;;;;;;-0.12;100.00;93863.69;2094168;28;20035;-82
2022/03/25 01:45:36;;;;;;;29.67;17.90;;;;;;;-0.17;100.00;93863.94;2091593;28;20409;-83
2022/03/25 01:46:37;;;;;;;27.50;17.42;;;;;;;-0.29;100.00;93866.53;2093160;28;20030;-82
2022/03/25 01:47:39;;;;;;;28.55;16.83;;;;;;;-0.38;100.00;93865.88;2097363;28;20377;-81
2022/03/25 01:48:40;;;;;;;30.50;18.30;;;;;;;-0.37;100.00;93864.78;2097152;28;20036;-83
2022/03/25 01:49:41;;;;;;;28.02;18.08;;;;;;;-0.22;100.00;93873.88;2084589;28;20387;-83
2022/03/25 01:50:44;;;;;;;29.60;17.90;;;;;;;-0.25;100.00;93870.06;2084550;28;20446;-81
2022/03/25 01:51:48;;;;;;;28.00;18.38;;;;;;;-0.26;100.00;93865.91;2085696;28;20410;-83
2022/03/25 01:52:50;;;;;;;29.25;17.20;;;;;;;-0.31;100.00;93876.59;2088775;28;20035;-83
2022/03/25 01:53:51;;;;;;;31.08;17.27;;;;;;;-0.28;100.00;93868.84;2095579;28;20873;-82
2022/03/25 01:54:53;;;;;;;29.90;16.77;;;;;;;-0.18;100.00;93870.25;2093364;28;20051;-82
2022/03/25 01:55:57;;;;;;;27.50;17.73;;;;;;;-0.19;100.00;93866.09;2095402;28;20111;-82
2022/03/25 01:57:02;;;;;;;26.85;17.35;;;;;;;-0.23;100.00;93867.09;2090119;28;20414;-81
2022/03/25 01:58:05;;;;;;;27.88;17.95;;;;;;;-0.24;100.00;93865.56;2087796;28;20355;-82
2022/03/25 01:59:06;;;;;;;28.35;18.08;;;;;;;-0.27;100.00;93865.09;2087357;28;20017;-83
2022/03/25 02:00:08;;;;;;;26.77;17.30;;;;;;;-0.33;100.00;93863.81;2087024;28;20119;-82
2022/03/25 02:01:09;;;;;;;31.48;18.25;;;;;;;-0.20;100.00;93858.56;2089295;28;20371;-84
2022/03/25 02:02:10;;;;;;;28.95;18.75;;;;;;;-0.24;100.00;93865.56;2095842;28;20047;-84
2022/03/25 02:03:12;;;;;;;28.10;18.45;;;;;;;-0.29;100.00;93864.69;2096402;28;20458;-82
2022/03/25 02:04:13;;;;;;;33.40;18.23;;;;;;;-0.35;100.00;93858.13;2097443;28;20116;-82
2022/03/25 02:05:15;;;;;;;28.52;17.45;;;;;;;-0.21;100.00;93862.28;2097162;28;20020;-82
2022/03/25 02:06:16;;;;;;;27.63;18.10;;;;;;;-0.22;100.00;93866.00;2094795;28;20028;-84
2022/03/25 02:07:21;;;;;;;28.00;17.55;;;;;;;-0.23;100.00;93859.22;2088961;28;20822;-84
2022/03/25 02:08:22;;;;;;;31.55;18.45;;;;;;;-0.33;100.00;93863.81;2085424;28;20486;-82
2022/03/25 02:09:27;;;;;;;32.15;17.88;;;;;;;-0.34;100.00;93864.16;2096739;28;20094;-82
2022/03/25 02:12:14;;;;;;;28.95;16.38;;;;;;;-0.39;100.00;93852.00;2130233;27;20627;-82
2022/03/25 02:13:15;;;;;;;32.40;17.58;;;;;;;-0.45;100.00;93861.16;2117962;28;20476;-83
2022/03/25 02:14:16;;;;;;;28.90;17.15;;;;;;;-0.46;100.00;93862.25;2101671;28;20020;-83
2022/03/25 02:15:17;;;;;;;37.35;19.33;;;;;;;-0.40;100.00;93853.06;2101808;28;20938;-82
2022/03/25 02:16:18;;;;;;;28.52;18.40;;;;;;;-0.38;100.00;93852.75;2112700;28;20023;-83
2022/03/25 02:17:19;;;;;;;30.40;19.27;;;;;;;-0.34;100.00;93859.66;2104651;28;20027;-83
2022/03/25 02:18:20;;;;;;;27.08;17.50;;;;;;;-0.42;100.00;93854.50;2100439;28;20032;-83
2022/03/25 02:19:24;;;;;;;29.48;17.70;;;;;;;-0.39;100.00;93861.75;2092862;28;20033;-83
2022/03/25 02:20:25;;;;;;;29.52;18.00;;;;;;;-0.40;100.00;93862.81;2095884;28;20115;-84
2022/03/25 02:21:33;;;;;;;27.65;17.10;;;;;;;-0.41;100.00;93856.03;2098270;28;20032;-84
2022/03/25 02:22:39;;;;;;;30.52;18.20;;;;;;;-0.49;100.00;93852.41;2100939;28;20027;-83
2022/03/25 02:23:40;;;;;;;31.20;16.77;;;;;;;-0.56;100.00;93852.19;2097599;28;20107;-81
2022/03/25 02:24:41;;;;;;;29.98;18.88;;;;;;;-0.63;100.00;93855.34;2097176;28;20028;-83
2022/03/25 02:25:43;;;;;;;27.92;17.77;;;;;;;-0.52;100.00;93858.34;2096114;28;20078;-83
2022/03/25 02:26:44;;;;;;;27.45;17.17;;;;;;;-0.53;100.00;93857.56;2095703;28;20391;-83
2022/03/25 02:27:47;;;;;;;31.20;17.92;;;;;;;-0.62;100.00;93858.75;2090650;28;20032;-83
2022/03/25 02:28:47;;;;;;;28.40;18.38;;;;;;;-0.63;100.00;93854.59;2091918;28;20025;-82
2022/03/25 02:29:50;;;;;;;29.50;18.17;;;;;;;-0.64;100.00;93853.06;2088961;28;20032;-83
2022/03/25 02:30:51;;;;;;;29.63;17.88;;;;;;;-0.54;100.00;93853.38;2094524;28;20052;-83
2022/03/25 02:31:52;;;;;;;30.38;17.77;;;;;;;-0.53;100.00;93854.94;2108632;27;20039;-84
2022/03/25 02:32:57;;;;;;;32.45;19.55;;;;;;;-0.60;100.00;93854.72;2109942;28;20024;-82
2022/03/25 02:34:01;;;;;;;28.20;18.58;;;;;;;-0.63;100.00;93844.09;2098041;28;20024;-83
2022/03/25 02:35:03;;;;;;;32.97;18.73;;;;;;;-0.70;100.00;93841.22;2096403;28;20504;-83
2022/03/25 02:36:04;;;;;;;29.92;18.27;;;;;;;-0.64;100.00;93853.06;2095264;28;20054;-83
2022/03/25 02:37:05;;;;;;;28.63;18.40;;;;;;;-0.61;100.00;93847.94;2094763;28;20569;-84
2022/03/25 02:38:08;;;;;;;28.13;17.70;;;;;;;-0.60;100.00;93854.72;2104180;28;20020;-84
2022/03/25 02:39:11;;;;;;;31.13;18.55;;;;;;;-0.58;100.00;93847.25;2102965;28;20020;-82
2022/03/25 02:40:12;;;;;;;29.30;18.52;;;;;;;-0.64;100.00;93843.31;2096354;28;20462;-83
2022/03/25 02:41:13;;;;;;;32.05;17.08;;;;;;;-0.64;100.00;93850.44;2103263;28;20028;-81
2022/03/25 02:42:14;;;;;;;33.55;20.30;;;;;;;-0.66;100.00;93850.78;2104355;28;20548;-82
2022/03/25 02:43:17;;;;;;;31.77;18.60;;;;;;;-0.67;100.00;93848.47;2090936;28;20021;-85
2022/03/25 02:44:17;;;;;;;31.77;18.73;;;;;;;-0.68;100.00;93847.69;2093193;28;20141;-81
2022/03/25 02:45:22;;;;;;;31.90;18.95;;;;;;;-0.65;100.00;93848.91;2104426;28;20017;-83
2022/03/25 02:46:23;;;;;;;33.90;18.98;;;;;;;-0.72;100.00;93856.53;2110974;28;20054;-81
2022/03/25 02:47:24;;;;;;;30.27;18.20;;;;;;;-0.63;100.00;93844.09;2104322;28;20032;-82
2022/03/25 02:48:25;;;;;;;29.70;18.27;;;;;;;-0.63;100.00;93850.09;2099504;28;20023;-84
2022/03/25 02:49:26;;;;;;;31.02;19.60;;;;;;;-0.67;100.00;93848.47;2098667;28;20498;-85
2022/03/25 02:50:27;;;;;;;31.20;19.63;;;;;;;-0.82;100.00;93848.00;2104505;28;20028;-86
2022/03/25 02:51:28;;;;;;;29.08;17.42;;;;;;;-0.74;100.00;93849.00;2095675;28;20024;-85
2022/03/25 02:52:29;;;;;;;30.67;18.60;;;;;;;-0.70;100.00;93857.75;2094256;28;20032;-86
2022/03/25 02:53:31;;;;;;;28.50;17.90;;;;;;;-0.70;100.00;93855.13;2093532;28;20108;-85
2022/03/25 02:54:32;;;;;;;28.30;18.60;;;;;;;-0.75;100.00;93855.31;2104022;28;21069;-86
2022/03/25 02:55:33;;;;;;;29.65;18.73;;;;;;;-0.62;100.00;93849.00;2095392;28;20062;-85
2022/03/25 02:56:34;;;;;;;28.88;18.25;;;;;;;-0.59;100.00;93845.72;2095898;28;20104;-84
2022/03/25 02:57:35;;;;;;;30.58;17.73;;;;;;;-0.63;100.00;93844.09;2095920;28;20029;-86
2022/03/25 02:58:37;;;;;;;32.80;17.90;;;;;;;-0.73;100.00;93855.78;2096101;28;20020;-85
2022/03/25 02:59:38;;;;;;;31.52;18.05;;;;;;;-0.63;100.00;93852.72;2104106;28;20461;-84
2022/03/25 03:00:39;;;;;;;30.20;19.17;;;;;;;-0.57;100.00;93853.28;2095669;28;20035;-83
2022/03/25 03:01:40;;;;;;;31.73;18.55;;;;;;;-0.60;100.00;93851.31;2104198;28;20751;-83
2022/03/25 03:02:41;;;;;;;34.55;19.25;;;;;;;-0.71;100.00;93855.44;2104190;28;20024;-86
2022/03/25 03:03:42;;;;;;;32.50;19.17;;;;;;;-0.86;100.00;93852.38;2102047;28;20035;-83
2022/03/25 03:04:43;;;;;;;30.20;18.73;;;;;;;-0.81;100.00;93860.03;2103755;28;20070;-85
2022/03/25 03:05:44;;;;;;;32.83;19.05;;;;;;;-0.82;100.00;93858.50;2095981;28;20021;-86
2022/03/25 03:06:45;;;;;;;31.05;18.15;;;;;;;-0.74;100.00;93851.63;2085849;28;20099;-84
2022/03/25 03:07:46;;;;;;;32.78;17.67;;;;;;;-0.73;100.00;93853.16;2095768;28;20028;-85
2022/03/25 03:08:47;;;;;;;31.38;19.27;;;;;;;-0.78;100.00;93853.38;2090262;28;20029;-86
2022/03/25 03:09:48;;;;;;;32.53;18.92;;;;;;;-0.78;100.00;93858.63;2099247;28;20048;-85
2022/03/25 03:10:49;;;;;;;31.67;19.35;;;;;;;-0.77;100.00;93852.28;2101778;28;20551;-85
2022/03/25 03:11:51;;;;;;;30.10;18.27;;;;;;;-0.85;100.00;93850.50;2103130;28;20082;-85
2022/03/25 03:12:53;;;;;;;29.38;18.33;;;;;;;-0.89;100.00;93852.25;2102102;28;20055;-83
2022/03/25 03:13:54;;;;;;;32.38;18.10;;;;;;;-0.90;100.00;93851.47;2099472;28;20022;-82
2022/03/25 03:14:57;;;;;;;30.17;18.75;;;;;;;-0.88;100.00;93851.16;2099171;28;20027;-81
2022/03/25 03:15:58;;;;;;;35.33;19.33;;;;;;;-0.87;100.00;93853.47;2109613;28;20078;-83
2022/03/25 03:16:59;;;;;;;33.85;18.08;;;;;;;-0.82;100.00;93858.50;2087366;28;20103;-84
2022/03/25 03:17:59;;;;;;;29.85;18.38;;;;;;;-0.81;100.00;93849.53;2102811;28;20086;-83
2022/03/25 03:19:00;;;;;;;28.77;17.95;;;;;;;-0.94;100.00;93842.72;2102989;28;20020;-82
2022/03/25 03:20:02;;;;;;;33.63;18.63;;;;;;;-0.93;100.00;93853.97;2101873;28;20125;-84
2022/03/25 03:21:04;;;;;;;30.67;18.83;;;;;;;-0.92;100.00;93845.00;2105622;28;20021;-83
2022/03/25 03:22:05;;;;;;;29.48;18.40;;;;;;;-0.87;100.00;93850.84;2087950;28;20581;-85
2022/03/25 03:23:07;;;;;;;31.80;19.08;;;;;;;-0.89;100.00;93847.75;2084692;28;20433;-85
2022/03/25 03:24:09;;;;;;;31.30;18.70;;;;;;;-0.85;100.00;93848.66;2081645;28;20032;-86
2022/03/25 03:25:10;;;;;;;32.67;19.58;;;;;;;-0.88;100.00;93844.06;2090410;28;20045;-85
2022/03/25 03:26:12;;;;;;;30.73;18.27;;;;;;;-0.88;100.00;93856.41;2088341;28;20110;-85
2022/03/25 03:27:12;;;;;;;30.45;18.60;;;;;;;-0.87;100.00;93839.59;2081906;28;20032;-86
2022/03/25 03:28:13;;;;;;;30.77;17.25;;;;;;;-0.91;100.00;93844.72;2081759;28;20053;-84
2022/03/25 03:29:15;;;;;;;28.25;19.08;;;;;;;-0.94;100.00;93845.34;2085489;28;20031;-85
2022/03/25 03:30:16;;;;;;;30.77;18.38;;;;;;;-1.00;100.00;93838.78;2090343;28;20025;-85
2022/03/25 03:31:17;;;;;;;29.88;18.88;;;;;;;-0.99;100.00;93842.94;2089940;28;20157;-83
2022/03/25 03:32:18;;;;;;;29.23;18.63;;;;;;;-0.97;100.00;93851.22;2088193;28;20026;-83
2022/03/25 03:33:19;;;;;;;29.10;19.08;;;;;;;-1.06;100.00;93848.69;2081777;28;20752;-84
2022/03/25 03:34:20;;;;;;;33.67;18.27;;;;;;;-0.95;100.00;93846.44;2082073;28;20021;-85
2022/03/25 03:35:21;;;;;;;31.20;18.75;;;;;;;-1.04;100.00;93843.91;2090182;28;20116;-86
2022/03/25 03:36:22;;;;;;;29.63;18.42;;;;;;;-1.10;100.00;93845.22;2083979;28;20802;-86
2022/03/25 03:37:24;;;;;;;32.83;18.98;;;;;;;-1.11;100.00;93845.53;2082007;28;20037;-86
2022/03/25 03:38:26;;;;;;;30.20;17.83;;;;;;;-1.12;100.00;93844.00;2081943;28;20045;-84
2022/03/25 03:39:27;;;;;;;30.95;18.70;;;;;;;-1.05;100.00;93845.00;2081966;28;20021;-86
2022/03/25 03:40:28;;;;;;;32.25;18.40;;;;;;;-0.98;100.00;93848.94;2075762;28;20026;-83
2022/03/25 03:41:29;;;;;;;31.17;18.75;;;;;;;-1.07;100.00;93839.31;2080498;28;20076;-84
2022/03/25 03:42:30;;;;;;;30.60;18.48;;;;;;;-1.03;100.00;93842.03;2090111;28;20021;-85
2022/03/25 03:43:31;;;;;;;31.05;19.80;;;;;;;-1.02;100.00;93841.72;2090047;28;20098;-86
2022/03/25 03:44:32;;;;;;;29.55;19.05;;;;;;;-1.06;100.00;93840.06;2089962;28;20025;-83
2022/03/25 03:45:33;;;;;;;32.58;18.55;;;;;;;-1.19;100.00;93836.63;2082081;28;20048;-85
2022/03/25 03:46:35;;;;;;;31.20;19.13;;;;;;;-1.15;100.00;93834.13;2087035;28;20089;-84
2022/03/25 03:47:37;;;;;;;34.00;18.83;;;;;;;-1.17;100.00;93842.34;2089966;28;20029;-84
2022/03/25 03:48:39;;;;;;;30.13;17.42;;;;;;;-1.14;100.00;93848.78;2096315;28;20493;-84
2022/03/25 03:49:40;;;;;;;28.58;16.92;;;;;;;-1.10;100.00;93839.19;2079632;28;20087;-83
2022/03/25 03:50:41;;;;;;;28.92;18.15;;;;;;;-1.15;100.00;93847.25;2089973;28;20029;-84
2022/03/25 03:51:42;;;;;;;31.52;18.55;;;;;;;-1.12;100.00;93841.38;2083599;28;20036;-85
2022/03/25 03:52:43;;;;;;;28.92;18.45;;;;;;;-1.22;100.00;93844.41;2087156;28;20052;-86
2022/03/25 03:53:44;;;;;;;27.92;16.45;;;;;;;-1.20;100.00;93845.59;2078168;28;20033;-85
2022/03/25 03:54:45;;;;;;;27.50;17.83;;;;;;;-1.13;100.00;93842.47;2084504;28;20892;-83
2022/03/25 03:55:46;;;;;;;30.95;18.83;;;;;;;-1.16;100.00;93838.63;2081862;28;20033;-84
2022/03/25 03:56:47;;;;;;;31.35;18.48;;;;;;;-1.20;100.00;93848.22;2090041;28;20075;-84
2022/03/25 03:57:48;;;;;;;28.52;18.13;;;;;;;-1.17;100.00;93847.59;2092993;28;20063;-84
2022/03/25 03:58:49;;;;;;;30.77;18.38;;;;;;;-1.19;100.00;93843.75;2080700;28;20025;-84
2022/03/25 03:59:50;;;;;;;29.77;18.25;;;;;;;-1.20;100.00;93845.59;2076653;28;20143;-84
2022/03/25 04:00:51;;;;;;;30.75;18.80;;;;;;;-1.23;100.00;93843.63;2081490;28;20033;-85
2022/03/25 04:01:53;;;;;;;30.58;18.70;;;;;;;-1.12;100.00;93836.88;2088369;28;20378;-83
2022/03/25 04:02:55;;;;;;;29.13;17.67;;;;;;;-1.08;100.00;93839.63;2090038;28;20091;-84
2022/03/25 04:03:56;;;;;;;29.77;17.77;;;;;;;-1.00;100.00;93838.03;2081879;28;20030;-84
2022/03/25 04:04:57;;;;;;;27.35;16.92;;;;;;;-1.13;100.00;93837.97;2084157;28;20028;-83
2022/03/25 04:06:00;;;;;;;29.50;17.90;;;;;;;-1.20;100.00;93850.09;2088630;28;20020;-84
2022/03/25 04:07:01;;;;;;;29.92;17.83;;;;;;;-1.13;100.00;93837.22;2076555;28;20030;-83
2022/03/25 04:08:03;;;;;;;28.92;18.45;;;;;;;-1.11;100.00;93840.28;2074900;28;20077;-85
2022/03/25 04:09:04;;;;;;;30.58;16.67;;;;;;;-1.14;100.00;93844.31;2081609;28;20413;-83
2022/03/25 04:10:05;;;;;;;29.33;17.92;;;;;;;-1.17;100.00;93841.56;2089946;28;20024;-83
2022/03/25 04:11:06;;;;;;;27.52;18.33;;;;;;;-1.21;100.00;93846.69;2094655;28;20405;-83
2022/03/25 04:12:09;;;;;;;28.83;18.38;;;;;;;-1.16;100.00;93835.25;2089050;28;20049;-84
2022/03/25 04:13:09;;;;;;;31.27;18.58;;;;;;;-1.19;100.00;93844.50;2093039;28;20028;-84
2022/03/25 04:14:11;;;;;;;36.45;18.95;;;;;;;-1.15;100.00;93844.63;2083983;28;20024;-83
2022/03/25 04:15:12;;;;;;;26.92;16.92;;;;;;;-1.18;100.00;93842.69;2081440;28;20025;-82
2022/03/25 04:16:13;;;;;;;30.40;17.85;;;;;;;-1.26;100.00;93844.28;2074351;28;20036;-83
2022/03/25 04:17:15;;;;;;;29.67;18.60;;;;;;;-1.26;100.00;93836.41;2081558;28;20025;-83
2022/03/25 04:18:16;;;;;;;30.67;17.45;;;;;;;-1.30;100.00;93838.16;2094287;28;20491;-85
2022/03/25 04:19:17;;;;;;;31.70;18.40;;;;;;;-1.29;100.00;93839.66;2090044;28;20017;-83
2022/03/25 04:20:18;;;;;;;30.98;18.45;;;;;;;-1.24;100.00;93847.34;2089759;28;20044;-83
2022/03/25 04:21:19;;;;;;;30.30;18.05;;;;;;;-1.25;100.00;93834.56;2097873;28;20067;-84
2022/03/25 04:22:21;;;;;;;30.10;18.98;;;;;;;-1.22;100.00;93842.53;2089788;28;20038;-84
2022/03/25 04:23:22;;;;;;;31.52;18.98;;;;;;;-1.23;100.00;93843.63;2090021;28;20906;-84
2022/03/25 04:24:23;;;;;;;31.85;18.25;;;;;;;-1.30;100.00;93848.63;2082734;28;20467;-86
2022/03/25 04:25:24;;;;;;;32.17;18.25;;;;;;;-1.23;100.00;93848.09;2081155;28;20025;-84
2022/03/25 04:26:25;;;;;;;34.33;18.60;;;;;;;-1.24;100.00;93849.19;2077291;28;20054;-85
2022/03/25 04:27:26;;;;;;;31.55;19.42;;;;;;;-1.20;100.00;93850.09;2081635;28;20087;-85
2022/03/25 04:28:28;;;;;;;28.20;18.45;;;;;;;-1.28;100.00;93844.59;2086229;28;20037;-86
2022/03/25 04:29:28;;;;;;;31.70;18.23;;;;;;;-1.32;100.00;93846.34;2090005;28;20474;-84
2022/03/25 04:30:32;;;;;;;30.65;18.63;;;;;;;-1.28;100.00;93849.06;2081381;28;20157;-85
2022/03/25 04:31:33;;;;;;;31.60;19.33;;;;;;;-1.25;100.00;93848.44;2095097;28;20055;-85
2022/03/25 04:32:34;;;;;;;30.92;19.10;;;;;;;-1.30;100.00;93848.63;2089678;28;20049;-86
2022/03/25 04:33:36;;;;;;;32.25;19.42;;;;;;;-1.27;100.00;93850.63;2095539;28;20032;-84
2022/03/25 04:34:37;;;;;;;34.03;18.70;;;;;;;-1.27;100.00;93846.13;2089679;28;20028;-86
2022/03/25 04:35:38;;;;;;;31.70;18.90;;;;;;;-1.28;100.00;93847.22;2080596;28;20040;-83
2022/03/25 04:36:39;;;;;;;32.10;18.70;;;;;;;-1.36;100.00;93839.41;2087316;28;20020;-85
2022/03/25 04:37:41;;;;;;;28.88;18.02;;;;;;;-1.40;100.00;93847.19;2086966;28;20021;-85
2022/03/25 04:38:42;;;;;;;27.50;17.85;;;;;;;-1.33;100.00;93842.16;2096840;28;20025;-86
2022/03/25 04:39:43;;;;;;;35.25;19.67;;;;;;;-1.28;100.00;93841.97;2097918;28;20417;-84
2022/03/25 04:40:44;;;;;;;30.00;19.23;;;;;;;-1.32;100.00;93840.31;2089647;28;20037;-84
2022/03/25 04:41:45;;;;;;;29.40;18.00;;;;;;;-1.33;100.00;93844.03;2077895;28;20087;-84
2022/03/25 04:42:56;;;;;;;29.23;17.65;;;;;;;-1.28;100.00;93841.97;2075099;28;20460;-86